Time;durP1;ratioP1;P1;durP2;ratioP2;P2;SDS_P1;SDS_P2;PMS_P1;PMS_P2;Temp;Humidity;BMP_temperature;BMP_pressure;BME280_temperature;BME280_humidity;BME280_pressure;Samples;Min_cycle;Max_cycle;Signal;HPM_P1;HPM_P2
2023/09/12 00:06:58;;;;;;;14.60;7.72;;;13.50;99.90;;;;;;21040660;28;20554;-63
2023/09/12 00:17:03;;;;;;;13.43;8.85;;;13.10;99.90;;;;;;21055716;28;20042;-62
2023/09/12 00:27:05;;;;;;;14.63;9.73;;;12.90;99.90;;;;;;21052365;28;20040;-63
2023/09/12 00:37:07;;;;;;;16.52;11.95;;;12.80;99.90;;;;;;21053628;28;20035;-57
2023/09/12 00:47:11;;;;;;;16.42;9.80;;;12.70;99.90;;;;;;21034544;28;20036;-63
2023/09/12 00:57:13;;;;;;;14.52;9.30;;;12.70;99.90;;;;;;21052615;28;20032;-62
2023/09/12 01:07:15;;;;;;;14.35;9.13;;;12.90;99.90;;;;;;21036745;28;20401;-62
2023/09/12 01:17:17;;;;;;;14.48;9.57;;;12.80;99.90;;;;;;21033592;28;20081;-62
2023/09/12 01:27:30;;;;;;;11.82;9.07;;;12.80;99.90;;;;;;21051039;28;20473;-62
2023/09/12 01:37:32;;;;;;;14.88;11.85;;;12.90;99.90;;;;;;21049646;28;20036;-63
2023/09/12 01:47:35;;;;;;;16.02;11.10;;;12.80;99.90;;;;;;20992411;28;20490;-62
2023/09/12 01:57:38;;;;;;;20.98;12.18;;;12.60;99.90;;;;;;21013566;28;20032;-52
2023/09/12 02:07:42;;;;;;;16.80;11.90;;;12.70;99.90;;;;;;21048742;28;20044;-62
2023/09/12 02:17:43;;;;;;;21.92;11.27;;;12.70;99.90;;;;;;21020968;28;20036;-63
2023/09/12 02:27:45;;;;;;;18.38;12.43;;;12.50;99.90;;;;;;21046622;28;20104;-63
2023/09/12 02:37:47;;;;;;;18.95;11.93;;;12.60;99.90;;;;;;21064500;28;20028;-62
2023/09/12 02:47:49;;;;;;;17.38;12.52;;;12.90;99.90;;;;;;20986275;28;20032;-63
2023/09/12 02:57:50;;;;;;;19.27;14.88;;;12.90;99.90;;;;;;21045084;28;20054;-63
2023/09/12 03:07:52;;;;;;;20.83;14.07;;;12.80;99.90;;;;;;21045467;28;20052;-63
2023/09/12 03:17:54;;;;;;;22.00;16.23;;;12.70;99.90;;;;;;21042241;28;20032;-63
2023/09/12 03:27:56;;;;;;;21.30;14.73;;;12.60;99.90;;;;;;21047562;28;20522;-54
2023/09/12 03:37:58;;;;;;;20.83;14.27;;;12.40;99.90;;;;;;21029534;28;20032;-55
2023/09/12 03:48:00;;;;;;;25.67;17.00;;;12.20;99.90;;;;;;21018769;28;20024;-63
2023/09/12 03:58:02;;;;;;;15.25;10.50;;;12.20;99.90;;;;;;21003949;28;20036;-62
2023/09/12 04:08:04;;;;;;;18.90;14.20;;;12.30;99.90;;;;;;21031265;28;20036;-63
2023/09/12 04:18:06;;;;;;;21.33;16.58;;;12.30;99.90;;;;;;21005659;28;20082;-63
2023/09/12 04:28:11;;;;;;;29.30;20.10;;;12.40;99.90;;;;;;21001053;28;20036;-63
2023/09/12 04:38:13;;;;;;;20.10;14.98;;;12.30;99.90;;;;;;21003520;28;20062;-60
2023/09/12 04:48:15;;;;;;;30.38;23.17;;;12.50;99.90;;;;;;21004577;28;20093;-62
2023/09/12 04:58:17;;;;;;;30.23;23.70;;;12.50;99.90;;;;;;21009929;28;20040;-62
2023/09/12 05:08:19;;;;;;;30.83;21.95;;;12.30;99.90;;;;;;21002092;28;20081;-62
2023/09/12 05:18:21;;;;;;;27.70;18.80;;;12.50;99.90;;;;;;20992709;28;20032;-62
2023/09/12 05:28:25;;;;;;;34.60;24.73;;;13.10;99.90;;;;;;21012963;28;20059;-63
2023/09/12 05:38:28;;;;;;;42.67;29.63;;;13.40;99.90;;;;;;20996771;28;20098;-63
2023/09/12 05:48:30;;;;;;;55.10;40.45;;;13.60;99.90;;;;;;21005608;28;20401;-63
2023/09/12 05:58:34;;;;;;;66.03;45.08;;;13.70;99.90;;;;;;21038655;28;20049;-63
2023/09/12 06:08:36;;;;;;;78.15;51.95;;;13.80;99.90;;;;;;21016581;28;20353;-63
2023/09/12 06:18:38;;;;;;;77.32;52.60;;;13.90;99.90;;;;;;21027668;28;20051;-63
2023/09/12 06:28:40;;;;;;;81.47;54.25;;;14.10;99.90;;;;;;21006797;28;20452;-55
2023/09/12 06:38:42;;;;;;;72.05;49.65;;;14.50;99.90;;;;;;21017528;28;20032;-63
2023/09/12 06:48:50;;;;;;;55.05;41.22;;;15.00;99.90;;;;;;21020696;28;20555;-61
2023/09/12 06:58:53;;;;;;;41.15;34.08;;;16.00;99.90;;;;;;21024974;28;20043;-61
2023/09/12 07:08:54;;;;;;;35.65;29.60;;;17.20;99.90;;;;;;21000971;28;20047;-55
2023/09/12 07:18:57;;;;;;;34.42;26.77;;;18.40;99.90;;;;;;21022560;28;20503;-61
2023/09/12 07:29:02;;;;;;;25.30;22.63;;;19.70;99.90;;;;;;21020313;28;20032;-57
2023/09/12 07:39:04;;;;;;;24.10;20.63;;;20.70;99.90;;;;;;21033035;28;20024;-61
2023/09/12 07:49:08;;;;;;;24.65;19.40;;;21.80;99.90;;;;;;21010890;28;20036;-55
2023/09/12 07:59:12;;;;;;;25.15;20.98;;;22.20;99.90;;;;;;21006731;28;20054;-62
2023/09/12 14:35:14;;;;;;;51.08;42.53;;;24.10;99.90;;;;;;25619992;22;2109197;-64
2023/09/12 14:45:18;;;;;;;45.40;38.78;;;22.40;99.90;;;;;;25608396;23;20012;-64
2023/09/12 14:55:22;;;;;;;44.45;38.75;;;21.80;99.90;;;;;;25607688;23;20076;-58
2023/09/12 15:05:26;;;;;;;44.92;38.63;;;21.40;99.90;;;;;;25608635;23;20017;-56
2023/09/12 15:15:30;;;;;;;48.83;41.53;;;21.10;99.90;;;;;;25629445;23;20016;-57
2023/09/12 15:25:33;;;;;;;45.10;37.97;;;20.70;99.90;;;;;;25743613;22;20008;-58
2023/09/12 15:35:36;;;;;;;40.20;35.92;;;20.20;99.90;;;;;;25912525;22;20008;-58
2023/09/12 15:45:40;;;;;;;39.85;35.50;;;19.90;99.90;;;;;;25841101;23;20083;-58
2023/09/12 15:55:43;;;;;;;47.08;38.75;;;19.80;99.90;;;;;;25836259;23;20017;-54
2023/09/12 16:05:46;;;;;;;47.22;39.88;;;19.50;99.90;;;;;;25839196;23;20016;-57
2023/09/12 16:15:49;;;;;;;43.65;37.85;;;19.20;99.90;;;;;;25839810;23;20028;-56
2023/09/12 16:25:53;;;;;;;50.97;41.97;;;19.00;99.90;;;;;;25837098;22;20019;-56
2023/09/12 16:35:55;;;;;;;50.90;41.28;;;18.70;99.90;;;;;;25788029;23;20474;-56
2023/09/12 16:45:59;;;;;;;50.10;41.28;;;18.30;99.90;;;;;;25838967;23;20008;-56
2023/09/12 16:56:04;;;;;;;58.97;46.47;;;17.90;99.90;;;;;;25812285;23;20004;-55
2023/09/12 17:06:07;;;;;;;66.07;50.05;;;17.30;99.90;;;;;;25838533;23;20074;-56
2023/09/12 17:16:11;;;;;;;102.90;64.97;;;16.70;99.90;;;;;;25838077;23;20327;-55
2023/09/12 17:26:13;;;;;;;67.88;51.38;;;16.30;99.90;;;;;;25837699;22;20011;-55
2023/09/12 17:36:16;;;;;;;71.05;51.70;;;16.00;99.90;;;;;;25837471;23;20439;-53
2023/09/12 17:46:19;;;;;;;65.50;45.80;;;15.70;99.90;;;;;;25837075;23;20008;-64
2023/09/12 17:56:24;;;;;;;67.45;49.30;;;15.60;99.90;;;;;;25836924;23;20431;-64
2023/09/12 18:06:32;;;;;;;62.85;46.20;;;15.40;99.90;;;;;;25810927;23;20008;-64
2023/09/12 18:16:40;;;;;;;59.55;45.88;;;15.20;99.90;;;;;;25878467;23;20005;-64
2023/09/12 18:26:46;;;;;;;62.70;46.95;;;15.00;99.90;;;;;;25837343;23;20439;-55
2023/09/12 18:36:48;;;;;;;55.00;41.78;;;14.90;99.90;;;;;;25836290;23;20012;-64
2023/09/12 18:46:53;;;;;;;52.30;40.47;;;14.90;99.90;;;;;;25836057;23;20004;-62
2023/09/12 18:57:12;;;;;;;51.70;39.40;;;14.70;99.90;;;;;;25872930;23;20027;-64
2023/09/12 19:07:32;;;;;;;59.50;43.65;;;14.70;99.90;;;;;;25702155;23;20431;-55
2023/09/12 19:17:36;;;;;;;74.80;52.00;;;14.70;99.90;;;;;;25705334;23;20012;-55
2023/09/12 19:27:42;;;;;;;65.35;48.25;;;14.80;99.90;;;;;;25706054;23;20480;-63
2023/09/12 19:37:46;;;;;;;61.60;45.28;;;15.20;99.90;;;;;;25716730;23;20012;-56
2023/09/12 19:47:51;;;;;;;59.83;43.22;;;15.60;99.90;;;;;;25843398;23;20004;-55
2023/09/12 19:57:54;;;;;;;59.95;45.80;;;16.00;99.90;;;;;;25816131;23;20443;-59
2023/09/12 20:07:57;;;;;;;61.78;46.35;;;16.00;99.90;;;;;;25840922;23;20012;-56
2023/09/12 20:18:11;;;;;;;65.57;48.10;;;15.80;99.90;;;;;;25815675;23;20012;-56
2023/09/12 20:28:13;;;;;;;62.67;46.38;;;15.70;99.90;;;;;;25871243;22;20012;-56
2023/09/12 20:38:18;;;;;;;62.15;44.17;;;15.90;99.90;;;;;;25841791;23;20004;-56
2023/09/12 20:48:22;;;;;;;55.17;43.08;;;16.20;99.90;;;;;;25840688;23;20000;-57
2023/09/12 20:58:29;;;;;;;60.90;46.90;;;16.30;99.90;;;;;;25882419;23;20008;-64
2023/09/12 21:08:33;;;;;;;65.40;47.30;;;15.70;99.90;;;;;;25840353;23;20015;-55
2023/09/12 21:18:37;;;;;;;70.28;52.03;;;15.40;99.90;;;;;;25787855;23;20012;-54
2023/09/12 21:28:40;;;;;;;65.10;48.58;;;15.20;99.90;;;;;;25838889;22;20020;-59
2023/09/12 21:38:46;;;;;;;71.30;50.10;;;15.10;99.90;;;;;;25839053;23;20019;-63
2023/09/12 21:48:50;;;;;;;63.38;47.40;;;15.10;99.90;;;;;;25812838;23;20004;-55
2023/09/12 21:58:52;;;;;;;61.63;47.63;;;15.00;99.90;;;;;;25838597;23;20004;-64
2023/09/12 22:08:57;;;;;;;79.47;53.95;;;15.00;99.90;;;;;;25760655;23;20015;-64
2023/09/12 22:19:02;;;;;;;89.25;58.35;;;14.70;99.90;;;;;;25810982;23;20008;-56
2023/09/12 22:29:07;;;;;;;66.70;48.72;;;14.60;99.90;;;;;;25835372;23;20016;-56
2023/09/12 22:39:10;;;;;;;70.70;50.28;;;14.70;99.90;;;;;;25839561;23;20370;-55
2023/09/12 22:49:13;;;;;;;84.70;57.08;;;14.50;99.90;;;;;;25845929;23;20062;-56
2023/09/12 22:59:14;;;;;;;66.40;47.20;;;14.40;99.90;;;;;;25845789;23;20335;-56
2023/09/12 23:09:16;;;;;;;67.05;47.47;;;14.30;99.90;;;;;;25845369;23;20107;-60
2023/09/12 23:19:18;;;;;;;76.03;54.75;;;14.20;99.90;;;;;;25844410;23;20008;-56
2023/09/12 23:29:20;;;;;;;79.72;53.17;;;14.30;99.90;;;;;;25844003;22;20019;-57
2023/09/12 23:39:22;;;;;;;79.30;55.25;;;14.30;99.90;;;;;;25843597;23;20027;-56
2023/09/12 23:49:24;;;;;;;87.63;60.38;;;14.30;99.90;;;;;;25843832;23;20008;-54
2023/09/12 23:59:26;;;;;;;95.90;63.55;;;14.20;99.90;;;;;;25843718;23;20008;-56
